CYQK - Kenora Airport

Pirep is a free, collaborative database of all public and private airports located within the United States. All pilots are welcome to contribute, edit, and improve any airport they have local knowledge about, no registration required.
Are you familiar with this airport? Help out other pilots by adding your local knowledge.
Uploaded photos will be licensed under a CC BY-SA 4.0 license. Please only upload photos you have the rights to use.
Tags
Public
Undocu­mented
METAR / TAF
Edit Tags
Food
Camping
Lodging
Car Rental
Bicycles
Swimming
Golfing
Fishing
Hot Springs
Museum
Flying Clubs
Airpark
Upcoming Events
No upcoming events. Is anything happening here soon?
*
*
*

Where exactly on/near the airport is this event taking place?

Is there a webpage with more information for this event?

Who should be contacted for more information?

What is this event all about?

Repeat every
Description
Transient Parking
Fuel Location
Landing & Tie-down Fees
Crew Car Availability
Flying Clubs
WiFi Access
Airport Statistics
Location: Kenora, Ontario
Elevation: 1,332ft
Runway 08/26: 5,800ft
Warning: This airport was imported from a non-authoritative source. It's public/private status may not be accurate.
Access: Open to the public
Current Weather — VFR
  • Weather data is strictly informational and not for flight planning purposes.
  • METAR
    2024-06-17 07:00:00 CDT
    Ceiling Wind Temperature Dewpoint Weather Visbility
    19,000ft 270° @ 9kt 55°F 46°F N/A 20SM
    Clouds: Few @ 2,000ft, Broken @ 19,000ft, Broken @ 25,000ft
    Raw: CYQK 171200Z 27009KT 20SM FEW020 BKN190 BKN250 13/08 A2979 RMK SC1AC5CI1 PRESRR SLP091 DENSITY ALT 1600FT
  • TAF
    2024-06-17 03:00:00 CDT – 2024-06-17 06:00:00 CDT
    Ceiling Wind Weather Visbility
    Sky clear 240° @ 10kt, gusts 20kt N/A 6SM
    Clouds: Few @ 24,000ft
    Raw: TAF CYQK 170740Z 1708/1720 24010G20KT P6SM FEW240 FM171100 24012KT P6SM FEW020 TEMPO 1711/1715 BKN020 BECMG 1711/1713 28010G20KT FM171500 26010KT P6SM FEW030 SCT150 RMK NXT FCST BY 171400Z
  • TAF
    2024-06-17 06:00:00 CDT – 2024-06-17 15:00:00 CDT
    Ceiling Wind Weather Visbility
    Sky clear 240° @ 12kt N/A 6SM
    Clouds: Few @ 2,000ft
    Raw: TAF CYQK 170740Z 1708/1720 24010G20KT P6SM FEW240 FM171100 24012KT P6SM FEW020 TEMPO 1711/1715 BKN020 BECMG 1711/1713 28010G20KT FM171500 26010KT P6SM FEW030 SCT150 RMK NXT FCST BY 171400Z
  • TAF
    2024-06-17 06:00:00 CDT – 2024-06-17 10:00:00 CDT
    Ceiling Wind Weather Visbility
    2,000ft ° @ kt N/A SM
    Clouds: Broken @ 2,000ft
    Raw: TAF CYQK 170740Z 1708/1720 24010G20KT P6SM FEW240 FM171100 24012KT P6SM FEW020 TEMPO 1711/1715 BKN020 BECMG 1711/1713 28010G20KT FM171500 26010KT P6SM FEW030 SCT150 RMK NXT FCST BY 171400Z
  • TAF
    2024-06-17 06:00:00 CDT – 2024-06-17 10:00:00 CDT
    Ceiling Wind Weather Visbility
    Sky clear 280° @ 10kt, gusts 20kt N/A 6SM
    Clouds: Few @ 2,000ft
    Raw: TAF CYQK 170740Z 1708/1720 24010G20KT P6SM FEW240 FM171100 24012KT P6SM FEW020 TEMPO 1711/1715 BKN020 BECMG 1711/1713 28010G20KT FM171500 26010KT P6SM FEW030 SCT150 RMK NXT FCST BY 171400Z
  • TAF
    2024-06-17 10:00:00 CDT – 2024-06-17 15:00:00 CDT
    Ceiling Wind Weather Visbility
    Sky clear 260° @ 10kt N/A 6SM
    Clouds: Few @ 3,000ft, Scattered @ 15,000ft
    Raw: TAF CYQK 170740Z 1708/1720 24010G20KT P6SM FEW240 FM171100 24012KT P6SM FEW020 TEMPO 1711/1715 BKN020 BECMG 1711/1713 28010G20KT FM171500 26010KT P6SM FEW030 SCT150 RMK NXT FCST BY 171400Z
Click/tap to add an annotation marker to the map
Airport Webcams
No webcams added yet.
Direct links to live image URLs will be displayed inline on this page. URLs to separate webpages will be linked to.
URL:
Direct links to live image URLs will be displayed inline on this page. URLs to separate webpages will be linked to.
URL:
Comments
Leave a comment What was your experience like at this airport?